createdAt,value
2023-05-20T00:01:44.172Z,14.00
2023-05-20T00:04:13.287Z,14.00
2023-05-20T00:06:42.426Z,13.90
2023-05-20T00:09:09.895Z,13.90
2023-05-20T00:11:37.210Z,13.90
2023-05-20T00:14:08.991Z,13.90
2023-05-20T00:16:38.442Z,13.90
2023-05-20T00:19:05.258Z,13.90
2023-05-20T00:21:32.108Z,13.90
2023-05-20T00:24:01.694Z,13.80
2023-05-20T00:26:31.877Z,13.80
2023-05-20T00:29:01.859Z,13.80
2023-05-20T00:31:28.807Z,13.80
2023-05-20T00:33:55.725Z,13.70
2023-05-20T00:36:22.652Z,13.70
2023-05-20T00:38:51.773Z,13.60
2023-05-20T00:41:18.686Z,13.60
2023-05-20T00:43:45.544Z,13.70
2023-05-20T00:46:12.628Z,13.60
2023-05-20T00:48:43.589Z,13.60
2023-05-20T00:51:14.139Z,13.60
2023-05-20T00:53:43.590Z,13.50
2023-05-20T00:56:15.412Z,13.50
2023-05-20T00:58:42.286Z,13.60
2023-05-20T01:01:09.166Z,13.60
2023-05-20T01:03:36.141Z,13.60
2023-05-20T01:06:03.130Z,13.60
2023-05-20T01:08:34.163Z,13.60
2023-05-20T01:11:09.578Z,13.70
2023-05-20T01:13:47.631Z,13.60
2023-05-20T01:16:18.575Z,13.60
2023-05-20T01:18:48.631Z,13.50
2023-05-20T01:21:17.281Z,13.50
2023-05-20T01:23:46.456Z,13.30
2023-05-20T01:26:17.183Z,13.20
2023-05-20T01:28:46.387Z,13.20
2023-05-20T01:31:24.479Z,13.30
2023-05-20T01:33:58.142Z,13.30
2023-05-20T01:36:29.154Z,13.30
2023-05-20T01:38:57.527Z,13.30
2023-05-20T01:41:26.569Z,13.20
2023-05-20T01:43:56.449Z,13.20
2023-05-20T01:46:42.026Z,13.20
2023-05-20T01:49:08.969Z,13.20
2023-05-20T01:51:36.925Z,13.10
2023-05-20T01:54:03.929Z,13.10
2023-05-20T01:56:31.149Z,13.10
2023-05-20T01:59:01.618Z,13.10
2023-05-20T02:01:28.743Z,13.10
2023-05-20T02:03:55.670Z,13.20
2023-05-20T02:06:23.460Z,13.20
2023-05-20T02:08:50.358Z,13.10
2023-05-20T02:11:18.989Z,13.10
2023-05-20T02:13:45.850Z,13.20
2023-05-20T02:16:15.523Z,13.10
2023-05-20T02:18:43.030Z,13.10
2023-05-20T02:21:14.123Z,13.00
2023-05-20T02:23:47.809Z,13.00
2023-05-20T02:26:14.834Z,13.00
2023-05-20T02:28:46.738Z,13.00
2023-05-20T02:31:14.024Z,13.00
2023-05-20T02:33:43.185Z,12.90
2023-05-20T02:36:12.585Z,12.90
2023-05-20T02:38:39.558Z,12.80
2023-05-20T02:41:13.346Z,12.80
2023-05-20T02:43:44.473Z,12.90
2023-05-20T02:46:11.433Z,12.90
2023-05-20T02:48:39.795Z,12.90
2023-05-20T02:51:06.963Z,12.90
2023-05-20T02:53:33.715Z,12.90
2023-05-20T02:56:01.500Z,13.00
2023-05-20T02:58:30.781Z,13.00
2023-05-20T03:01:24.294Z,13.00
2023-05-20T03:03:53.738Z,13.00
2023-05-20T03:06:26.237Z,13.00
2023-05-20T03:08:53.086Z,13.00
2023-05-20T03:11:21.844Z,13.00
2023-05-20T03:13:48.885Z,13.00
2023-05-20T03:16:17.183Z,13.00
2023-05-20T03:18:44.819Z,13.00
2023-05-20T03:21:11.739Z,12.90
2023-05-20T03:23:38.550Z,12.90
2023-05-20T03:26:06.806Z,12.90
2023-05-20T03:28:33.957Z,12.90
2023-05-20T03:31:02.468Z,12.90
2023-05-20T03:33:31.487Z,13.00
2023-05-20T03:36:00.795Z,13.00
2023-05-20T03:38:32.404Z,13.10
2023-05-20T03:40:59.642Z,13.00
2023-05-20T03:43:29.369Z,13.00
2023-05-20T03:45:59.051Z,13.00
2023-05-20T03:48:26.026Z,13.00
2023-05-20T03:50:55.500Z,13.00
2023-05-20T03:57:48.505Z,13.10
2023-05-20T04:00:20.197Z,13.10
2023-05-20T04:02:49.334Z,13.00
2023-05-20T04:05:19.400Z,13.00
2023-05-20T04:07:47.504Z,13.10
2023-05-20T04:10:14.955Z,13.10
2023-05-20T04:12:47.016Z,13.00
2023-05-20T04:15:14.967Z,13.00
2023-05-20T04:18:10.569Z,13.00
2023-05-20T04:20:41.338Z,13.10
2023-05-20T04:23:08.984Z,13.10
2023-05-20T04:25:36.697Z,13.10
2023-05-20T04:28:04.389Z,13.10
2023-05-20T04:30:33.445Z,13.10
2023-05-20T04:33:03.479Z,13.20
2023-05-20T04:35:35.146Z,13.10
2023-05-20T04:38:08.434Z,13.10
2023-05-20T04:40:37.822Z,13.10
2023-05-20T04:43:07.458Z,13.10
2023-05-20T04:45:35.717Z,13.10
2023-05-20T04:48:03.982Z,13.10
2023-05-20T04:50:30.976Z,13.20
2023-05-20T04:52:59.943Z,13.20
2023-05-20T04:55:30.797Z,13.10
2023-05-20T04:57:57.828Z,13.20
2023-05-20T05:00:24.896Z,13.10
2023-05-20T05:02:55.901Z,13.20
2023-05-20T05:05:22.809Z,13.20
2023-05-20T05:07:49.740Z,13.20
2023-05-20T05:10:16.766Z,13.20
2023-05-20T05:12:44.205Z,13.20
2023-05-20T05:15:14.519Z,13.20
2023-05-20T05:17:43.189Z,13.20
2023-05-20T05:20:10.380Z,13.30
2023-05-20T05:22:42.074Z,13.30
2023-05-20T05:25:09.787Z,13.40
2023-05-20T05:27:41.584Z,13.40
2023-05-20T05:30:09.660Z,13.30
2023-05-20T05:32:39.166Z,13.30
2023-05-20T05:35:08.233Z,13.20
2023-05-20T05:37:35.412Z,13.30
2023-05-20T05:40:02.398Z,13.30
2023-05-20T05:42:29.620Z,13.20
2023-05-20T05:44:58.924Z,13.20
2023-05-20T05:47:32.709Z,13.20
2023-05-20T05:50:03.009Z,13.20
2023-05-20T05:52:35.137Z,13.30
2023-05-20T05:55:09.058Z,13.30
2023-05-20T05:57:38.490Z,13.30
2023-05-20T06:00:09.598Z,13.30
2023-05-20T06:02:47.898Z,13.30
2023-05-20T06:05:32.155Z,13.40
2023-05-20T06:08:01.528Z,13.40
2023-05-20T06:10:31.171Z,13.30
2023-05-20T06:13:00.645Z,13.40
2023-05-20T06:15:30.299Z,13.40
2023-05-20T06:17:59.620Z,13.40
2023-05-20T06:20:27.242Z,13.40
2023-05-20T06:22:56.456Z,13.40
2023-05-20T06:25:28.132Z,13.40
2023-05-20T06:27:55.512Z,13.50
2023-05-20T06:30:24.408Z,13.50
2023-05-20T06:32:53.961Z,13.50
2023-05-20T06:35:21.594Z,13.50
2023-05-20T06:37:49.286Z,13.50
2023-05-20T06:40:16.848Z,13.60
2023-05-20T06:42:44.256Z,13.60
2023-05-20T06:45:11.739Z,13.60
2023-05-20T06:48:01.541Z,13.60
2023-05-20T06:50:28.564Z,13.60
2023-05-20T06:52:57.836Z,13.70
2023-05-20T06:55:27.321Z,13.60
2023-05-20T06:57:56.702Z,13.60
2023-05-20T07:00:25.462Z,13.60
2023-05-20T07:02:54.253Z,13.70
2023-05-20T07:05:21.292Z,13.70
2023-05-20T07:07:52.857Z,13.70
2023-05-20T07:10:19.964Z,13.70
2023-05-20T07:12:48.638Z,13.70
2023-05-20T07:15:18.016Z,13.70
2023-05-20T07:17:44.982Z,13.80
2023-05-20T07:20:12.077Z,13.90
2023-05-20T07:22:41.216Z,13.90
2023-05-20T07:25:22.258Z,14.00
2023-05-20T07:27:51.813Z,14.00
2023-05-20T07:30:18.839Z,14.10
2023-05-20T07:32:55.484Z,14.10
2023-05-20T07:35:25.195Z,14.10
2023-05-20T07:37:52.405Z,14.10
2023-05-20T07:40:19.497Z,14.00
2023-05-20T07:42:48.828Z,14.10
2023-05-20T07:45:20.882Z,14.10
2023-05-20T07:47:50.160Z,14.10
2023-05-20T07:50:19.872Z,14.20
2023-05-20T07:52:56.094Z,14.30
2023-05-20T07:55:31.272Z,14.30
2023-05-20T07:57:58.660Z,14.40
2023-05-20T08:00:26.275Z,14.50
2023-05-20T08:02:53.332Z,14.70
2023-05-20T08:05:30.694Z,14.80
2023-05-20T08:07:59.410Z,14.90
2023-05-20T08:10:32.821Z,15.00
2023-05-20T08:12:59.885Z,14.90
2023-05-20T08:15:26.882Z,14.90
2023-05-20T08:17:54.049Z,14.90
2023-05-20T08:20:21.979Z,15.00
2023-05-20T08:22:51.303Z,15.00
2023-05-20T08:25:18.562Z,15.10
2023-05-20T08:27:45.658Z,15.10
2023-05-20T08:30:13.672Z,15.10
2023-05-20T08:32:43.854Z,15.20
2023-05-20T08:35:11.445Z,15.30
2023-05-20T08:37:38.426Z,15.50
2023-05-20T08:40:06.498Z,15.50
2023-05-20T08:42:34.369Z,15.60
2023-05-20T08:45:04.756Z,15.60
2023-05-20T08:47:33.028Z,15.60
2023-05-20T08:50:00.049Z,15.70
2023-05-20T08:52:31.680Z,15.70
2023-05-20T08:55:04.381Z,15.70
2023-05-20T08:57:34.633Z,15.70
2023-05-20T09:00:01.665Z,15.60
2023-05-20T09:02:31.078Z,15.50
2023-05-20T09:05:02.968Z,15.50
2023-05-20T09:07:35.171Z,15.40
2023-05-20T09:10:06.004Z,15.30
2023-05-20T09:12:35.747Z,15.20
2023-05-20T09:15:02.751Z,15.20
2023-05-20T09:17:29.719Z,15.30
2023-05-20T09:19:59.428Z,15.40
2023-05-20T09:22:28.416Z,15.50
2023-05-20T09:24:57.803Z,15.60
2023-05-20T09:27:24.749Z,15.60
2023-05-20T09:29:51.924Z,15.60
2023-05-20T09:32:28.255Z,15.70
2023-05-20T09:34:55.276Z,15.70
2023-05-20T09:37:23.214Z,15.80
2023-05-20T09:39:59.543Z,15.70
2023-05-20T09:42:50.647Z,15.60
2023-05-20T09:45:17.606Z,15.60
2023-05-20T09:47:46.022Z,15.70
2023-05-20T09:50:13.762Z,15.80
2023-05-20T09:52:42.108Z,15.90
2023-05-20T09:55:13.165Z,16.00
2023-05-20T09:57:40.049Z,16.00
2023-05-20T10:00:13.309Z,15.90
2023-05-20T10:02:53.051Z,15.90
2023-05-20T10:05:27.641Z,16.00
2023-05-20T10:08:22.298Z,16.00
2023-05-20T10:11:12.557Z,15.90
2023-05-20T10:14:11.986Z,15.90
2023-05-20T10:16:56.426Z,15.80
2023-05-20T10:19:33.218Z,15.90
2023-05-20T10:22:03.143Z,16.00
2023-05-20T10:24:37.955Z,16.10
2023-05-20T10:27:08.183Z,16.10
2023-05-20T10:29:45.558Z,16.20
2023-05-20T10:32:23.140Z,16.10
2023-05-20T10:34:51.384Z,16.10
2023-05-20T10:37:31.188Z,16.20
2023-05-20T10:40:12.855Z,16.30
2023-05-20T10:42:40.583Z,16.40
2023-05-20T10:45:08.600Z,16.50
2023-05-20T10:47:36.602Z,16.70
2023-05-20T10:50:05.945Z,16.80
2023-05-20T10:52:39.513Z,16.90
2023-05-20T10:55:19.459Z,17.00
2023-05-20T10:57:53.715Z,17.00
2023-05-20T11:00:25.554Z,17.00
2023-05-20T11:02:55.538Z,17.00
2023-05-20T11:05:22.975Z,17.00
2023-05-20T11:08:08.344Z,16.90
2023-05-20T11:10:47.078Z,16.90
2023-05-20T11:13:20.859Z,17.00
2023-05-20T11:15:52.558Z,17.00
2023-05-20T11:18:19.529Z,17.00
2023-05-20T11:20:47.379Z,17.10
2023-05-20T11:23:15.364Z,17.20
2023-05-20T11:25:42.539Z,17.30
2023-05-20T11:28:17.770Z,17.50
2023-05-20T11:30:44.848Z,17.60
2023-05-20T11:33:18.902Z,17.60
2023-05-20T11:35:47.534Z,17.60
2023-05-20T11:38:14.565Z,17.60
2023-05-20T11:45:13.290Z,17.80
2023-05-20T11:47:42.473Z,18.10
2023-05-20T11:50:10.139Z,19.20
2023-05-20T11:52:36.997Z,19.20
2023-05-20T11:55:04.212Z,18.90
2023-05-20T11:57:31.683Z,18.70
2023-05-20T11:59:59.262Z,18.60
2023-05-20T12:02:28.678Z,18.50
2023-05-20T12:04:56.209Z,18.40
2023-05-20T12:07:23.431Z,18.30
2023-05-20T12:09:52.627Z,18.30
2023-05-20T12:12:20.194Z,18.30
2023-05-20T12:14:49.836Z,18.30
2023-05-20T12:17:16.721Z,18.30
2023-05-20T12:19:50.363Z,18.20
2023-05-20T12:22:19.448Z,18.20
2023-05-20T12:24:49.765Z,18.20
2023-05-20T12:27:16.707Z,18.10
2023-05-20T12:29:43.582Z,18.10
2023-05-20T12:32:10.561Z,18.20
2023-05-20T12:34:37.491Z,18.20
2023-05-20T12:37:04.543Z,18.30
2023-05-20T12:39:33.589Z,18.30
2023-05-20T12:42:00.510Z,18.20
2023-05-20T12:44:27.475Z,18.20
2023-05-20T12:46:57.972Z,18.40
2023-05-20T12:49:24.875Z,18.40
2023-05-20T12:51:51.717Z,18.40
2023-05-20T12:54:23.128Z,18.50
2023-05-20T12:56:53.064Z,18.60
2023-05-20T12:59:22.242Z,18.60
2023-05-20T13:01:51.610Z,18.70
2023-05-20T13:04:18.542Z,18.90
2023-05-20T13:06:45.728Z,18.90
2023-05-20T13:09:12.650Z,18.80
2023-05-20T13:11:39.492Z,18.80
2023-05-20T13:14:06.365Z,18.80
2023-05-20T13:16:33.242Z,18.80
2023-05-20T13:19:02.420Z,18.70
2023-05-20T13:21:29.427Z,18.60
2023-05-20T13:23:56.523Z,18.60
2023-05-20T13:26:25.705Z,18.60
2023-05-20T13:28:52.639Z,18.70
2023-05-20T13:31:21.940Z,18.70
2023-05-20T13:33:48.957Z,18.70
2023-05-20T13:36:20.652Z,18.70
2023-05-20T13:38:47.670Z,18.70
2023-05-20T13:41:14.546Z,18.80
2023-05-20T13:43:42.209Z,18.90
2023-05-20T13:46:13.820Z,18.80
2023-05-20T13:48:40.696Z,18.80
2023-05-20T13:51:11.965Z,19.10
2023-05-20T13:53:41.624Z,19.20
2023-05-20T13:56:11.710Z,19.40
2023-05-20T13:58:41.526Z,20.60
2023-05-20T14:01:08.844Z,23.50
2023-05-20T14:03:37.410Z,25.30
2023-05-20T14:06:04.703Z,26.80
2023-05-20T14:08:34.195Z,28.30
2023-05-20T14:11:01.272Z,29.30
2023-05-20T14:13:30.809Z,30.50
2023-05-20T14:15:58.102Z,28.80
2023-05-20T14:18:24.997Z,28.80
2023-05-20T14:20:52.226Z,30.60
2023-05-20T14:23:21.714Z,31.50
2023-05-20T14:25:48.614Z,30.30
2023-05-20T14:28:20.364Z,27.50
2023-05-20T14:30:50.438Z,26.80
2023-05-20T14:33:22.042Z,25.50
2023-05-20T14:35:48.919Z,25.20
2023-05-20T14:38:16.649Z,25.40
2023-05-20T14:40:43.700Z,25.50
2023-05-20T14:43:10.556Z,26.90
2023-05-20T14:45:37.587Z,27.70
2023-05-20T14:48:07.040Z,27.20
2023-05-20T14:50:34.269Z,28.40
2023-05-20T14:53:01.231Z,27.20
2023-05-20T14:55:28.215Z,25.60
2023-05-20T14:57:55.165Z,25.30
2023-05-20T15:00:22.103Z,24.80
2023-05-20T15:02:49.097Z,24.00
2023-05-20T15:05:16.158Z,23.80
2023-05-20T15:07:46.782Z,23.50
2023-05-20T15:10:14.073Z,22.90
2023-05-20T15:12:41.008Z,22.30
2023-05-20T15:15:09.629Z,22.10
2023-05-20T15:17:36.752Z,21.50
2023-05-20T15:20:04.282Z,21.30
2023-05-20T15:22:31.249Z,21.10
2023-05-20T15:24:58.294Z,21.00
2023-05-20T15:27:25.328Z,21.10
2023-05-20T15:29:52.261Z,21.10
2023-05-20T15:32:19.889Z,21.10
2023-05-20T15:34:49.397Z,21.10
2023-05-20T15:37:18.384Z,21.00
2023-05-20T15:39:45.322Z,20.90
2023-05-20T15:42:18.351Z,20.90
2023-05-20T15:44:46.028Z,20.80
2023-05-20T15:47:15.375Z,20.80
2023-05-20T15:49:42.362Z,20.70
2023-05-20T15:52:09.221Z,20.70
2023-05-20T15:54:38.303Z,20.70
2023-05-20T15:57:05.502Z,20.60
2023-05-20T15:59:32.410Z,20.60
2023-05-20T16:02:00.735Z,20.60
2023-05-20T16:04:30.287Z,20.50
2023-05-20T16:06:57.319Z,20.50
2023-05-20T16:09:26.876Z,20.50
2023-05-20T16:11:53.910Z,20.50
2023-05-20T16:14:20.793Z,20.40
2023-05-20T16:16:47.815Z,20.30
2023-05-20T16:19:17.306Z,20.40
2023-05-20T16:21:44.739Z,20.30
2023-05-20T16:24:12.330Z,20.30
2023-05-20T16:26:39.245Z,20.30
2023-05-20T16:29:08.401Z,20.40
2023-05-20T16:31:37.721Z,20.40
2023-05-20T16:34:07.238Z,20.50
2023-05-20T16:36:36.664Z,20.50
2023-05-20T16:39:08.598Z,20.50
2023-05-20T16:41:40.338Z,20.40
2023-05-20T16:44:07.395Z,20.40
2023-05-20T16:46:34.345Z,20.30
2023-05-20T16:49:01.633Z,20.20
2023-05-20T16:51:33.194Z,20.10
2023-05-20T16:54:00.187Z,20.00
2023-05-20T16:56:29.734Z,19.90
2023-05-20T16:58:56.739Z,19.90
2023-05-20T17:01:23.917Z,19.90
2023-05-20T17:03:50.977Z,19.90
2023-05-20T17:06:20.171Z,19.90
2023-05-20T17:08:47.222Z,19.80
2023-05-20T17:11:14.192Z,19.80
2023-05-20T17:13:41.655Z,19.80
2023-05-20T17:16:09.967Z,19.70
2023-05-20T17:18:37.221Z,19.70
2023-05-20T17:21:04.305Z,19.70
2023-05-20T17:23:33.405Z,19.70
2023-05-20T17:26:00.463Z,19.70
2023-05-20T17:28:27.406Z,19.70
2023-05-20T17:30:54.390Z,19.70
2023-05-20T17:33:21.613Z,19.70
2023-05-20T17:35:48.608Z,19.70
2023-05-20T17:38:17.692Z,19.70
2023-05-20T17:40:50.138Z,19.60
2023-05-20T17:43:17.013Z,19.60
2023-05-20T17:45:43.842Z,19.60
2023-05-20T17:48:11.941Z,19.60
2023-05-20T17:50:39.073Z,19.60
2023-05-20T17:53:06.196Z,19.60
2023-05-20T17:55:36.148Z,19.50
2023-05-20T17:58:03.878Z,19.50
2023-05-20T18:00:34.516Z,19.50
2023-05-20T18:03:01.775Z,19.50
2023-05-20T18:05:31.562Z,19.40
2023-05-20T18:08:04.350Z,19.40
2023-05-20T18:10:35.939Z,19.40
2023-05-20T18:13:03.012Z,19.30
2023-05-20T18:15:30.037Z,19.30
2023-05-20T18:17:57.082Z,19.30
2023-05-20T18:20:24.111Z,19.30
2023-05-20T18:22:58.492Z,19.20
2023-05-20T18:25:27.963Z,19.30
2023-05-20T18:27:54.963Z,19.20
2023-05-20T18:30:23.180Z,19.20
2023-05-20T18:32:53.212Z,19.20
2023-05-20T18:35:20.228Z,19.20
2023-05-20T18:37:47.218Z,19.20
2023-05-20T18:40:14.313Z,19.20
2023-05-20T18:42:41.383Z,19.10
2023-05-20T18:45:08.875Z,19.10
2023-05-20T18:47:36.094Z,19.10
2023-05-20T18:50:03.107Z,19.10
2023-05-20T18:52:32.522Z,19.10
2023-05-20T18:54:59.405Z,19.10
2023-05-20T18:57:26.475Z,19.00
2023-05-20T18:59:55.653Z,19.10
2023-05-20T19:02:24.762Z,19.10
2023-05-20T19:04:51.847Z,19.00
2023-05-20T19:07:22.754Z,19.00
2023-05-20T19:09:52.217Z,19.00
2023-05-20T19:12:19.108Z,19.00
2023-05-20T19:14:46.565Z,18.90
2023-05-20T19:17:14.095Z,18.90
2023-05-20T19:19:41.199Z,18.90
2023-05-20T19:22:08.235Z,18.90
2023-05-20T19:24:38.572Z,18.90
2023-05-20T19:27:06.043Z,18.90
2023-05-20T19:29:32.961Z,18.90
2023-05-20T19:32:00.121Z,18.90
2023-05-20T19:34:26.990Z,18.90
2023-05-20T19:36:56.671Z,18.90
2023-05-20T19:39:23.628Z,18.90
2023-05-20T19:41:53.407Z,18.80
2023-05-20T19:44:20.516Z,18.80
2023-05-20T19:46:47.889Z,18.80
2023-05-20T19:49:14.938Z,18.80
2023-05-20T19:51:41.960Z,18.80
2023-05-20T19:54:10.042Z,18.80
2023-05-20T19:56:37.012Z,18.80
2023-05-20T19:59:04.162Z,18.80
2023-05-20T20:01:33.384Z,18.80
2023-05-20T20:04:00.400Z,18.70
2023-05-20T20:06:27.289Z,18.70
2023-05-20T20:08:54.245Z,18.70
2023-05-20T20:11:21.321Z,18.60
2023-05-20T20:13:48.332Z,18.70
2023-05-20T20:16:15.629Z,18.70
2023-05-20T20:18:45.101Z,18.60
2023-05-20T20:21:14.829Z,18.60
2023-05-20T20:23:43.309Z,18.60
2023-05-20T20:26:13.857Z,18.60
2023-05-20T20:28:40.951Z,18.60
2023-05-20T20:31:09.914Z,18.50
2023-05-20T20:33:36.885Z,18.50
2023-05-20T20:36:04.000Z,18.50
2023-05-20T20:38:31.391Z,18.40
2023-05-20T20:40:59.252Z,18.40
2023-05-20T20:43:28.914Z,18.40
2023-05-20T20:45:59.956Z,18.30
2023-05-20T20:48:29.443Z,18.30
2023-05-20T20:50:56.356Z,18.30
2023-05-20T20:53:23.318Z,18.30
2023-05-20T20:55:53.062Z,18.30
2023-05-20T20:58:20.102Z,18.30
2023-05-20T21:00:48.526Z,18.20
2023-05-20T21:03:15.757Z,18.20
2023-05-20T21:05:42.655Z,18.20
2023-05-20T21:08:14.133Z,18.20
2023-05-20T21:10:43.373Z,18.20
2023-05-20T21:13:12.667Z,18.10
2023-05-20T21:15:46.355Z,18.20
2023-05-20T21:18:14.812Z,18.10
2023-05-20T21:20:43.825Z,18.10
2023-05-20T21:23:10.915Z,18.00
2023-05-20T21:25:40.770Z,18.00
2023-05-20T21:28:10.350Z,18.00
2023-05-20T21:30:37.557Z,17.90
2023-05-20T21:33:04.790Z,18.00
2023-05-20T21:35:31.833Z,17.90
2023-05-20T21:38:01.433Z,17.90
2023-05-20T21:40:28.303Z,17.90
2023-05-20T21:42:57.271Z,17.90
2023-05-20T21:45:28.964Z,17.80
2023-05-20T21:47:55.989Z,17.80
2023-05-20T21:50:23.000Z,17.80
2023-05-20T21:52:50.529Z,17.80
2023-05-20T21:55:23.185Z,17.80
2023-05-20T21:57:51.139Z,17.80
2023-05-20T22:00:19.165Z,17.80
2023-05-20T22:02:46.355Z,17.70
2023-05-20T22:05:13.640Z,17.70
2023-05-20T22:07:47.734Z,17.70
2023-05-20T22:10:17.475Z,17.70
2023-05-20T22:12:44.829Z,17.70
2023-05-20T22:15:12.000Z,17.60
2023-05-20T22:17:39.335Z,17.60
2023-05-20T22:24:06.779Z,17.60
2023-05-20T22:26:34.491Z,17.50
2023-05-20T22:29:04.605Z,17.50
2023-05-20T22:31:31.598Z,17.50
2023-05-20T22:34:01.131Z,17.50
2023-05-20T22:36:28.485Z,17.50
2023-05-20T22:38:55.548Z,17.50
2023-05-20T22:41:28.013Z,17.40
2023-05-20T22:43:57.584Z,17.50
2023-05-20T22:46:29.216Z,17.40
2023-05-20T22:48:58.199Z,17.40
2023-05-20T22:51:25.561Z,17.40
2023-05-20T22:53:52.646Z,17.40
2023-05-20T22:56:19.991Z,17.30
2023-05-20T22:58:51.282Z,17.30
2023-05-20T23:01:22.074Z,17.30
2023-05-20T23:03:49.179Z,17.30
2023-05-20T23:06:16.349Z,17.30
2023-05-20T23:08:44.426Z,17.40
2023-05-20T23:11:11.412Z,17.30
2023-05-20T23:13:40.535Z,17.30
2023-05-20T23:16:07.625Z,17.30
2023-05-20T23:18:37.045Z,17.30
2023-05-20T23:21:04.246Z,17.30
2023-05-20T23:23:33.362Z,17.30
2023-05-20T23:26:01.536Z,17.20
2023-05-20T23:28:30.717Z,17.20
2023-05-20T23:31:23.131Z,17.20
2023-05-20T23:33:50.080Z,17.20
2023-05-20T23:36:20.014Z,17.10
2023-05-20T23:38:47.090Z,17.10
2023-05-20T23:41:13.967Z,17.00
2023-05-20T23:43:40.972Z,17.00
2023-05-20T23:46:12.920Z,17.00
2023-05-20T23:48:39.874Z,17.00
2023-05-20T23:51:10.008Z,17.00
2023-05-20T23:53:36.997Z,16.90
2023-05-20T23:56:04.181Z,16.90
2023-05-20T23:58:31.203Z,16.90
